createdAt,value
2022-12-18T00:01:39.731Z,-4.10
2022-12-18T00:04:21.891Z,-4.10
2022-12-18T00:06:49.483Z,-4.10
2022-12-18T00:09:16.264Z,-4.10
2022-12-18T00:11:43.717Z,-4.20
2022-12-18T00:14:13.181Z,-4.00
2022-12-18T00:16:40.466Z,-3.90
2022-12-18T00:19:07.667Z,-3.80
2022-12-18T00:21:34.531Z,-3.70
2022-12-18T00:24:01.468Z,-3.70
2022-12-18T00:26:33.548Z,-3.70
2022-12-18T00:29:13.947Z,-3.60
2022-12-18T00:31:42.207Z,-3.60
2022-12-18T00:34:12.601Z,-3.70
2022-12-18T00:36:40.445Z,-3.70
2022-12-18T00:39:07.764Z,-3.80
2022-12-18T00:41:52.609Z,-3.80
2022-12-18T00:44:19.757Z,-3.60
2022-12-18T00:46:48.399Z,-3.30
2022-12-18T00:49:17.954Z,-3.30
2022-12-18T00:51:44.418Z,-3.30
2022-12-18T00:54:11.542Z,-3.40
2022-12-18T00:56:48.428Z,-3.60
2022-12-18T00:59:16.702Z,-3.50
2022-12-18T01:01:43.349Z,-3.60
2022-12-18T01:04:09.974Z,-3.60
2022-12-18T01:06:36.476Z,-3.80
2022-12-18T01:09:03.532Z,-4.00
2022-12-18T01:11:30.021Z,-4.10
2022-12-18T01:13:56.516Z,-4.00
2022-12-18T01:16:23.381Z,-4.00
2022-12-18T01:18:54.182Z,-3.80
2022-12-18T01:21:21.588Z,-4.10
2022-12-18T01:23:52.510Z,-4.30
2022-12-18T01:26:19.600Z,-4.50
2022-12-18T01:28:46.253Z,-4.50
2022-12-18T01:31:26.201Z,-4.60
2022-12-18T01:33:53.663Z,-4.60
2022-12-18T01:36:28.265Z,-4.50
2022-12-18T01:38:55.021Z,-4.50
2022-12-18T01:42:01.593Z,-4.50
2022-12-18T01:46:00.166Z,-4.40
2022-12-18T01:48:26.683Z,-4.50
2022-12-18T01:50:53.156Z,-4.40
2022-12-18T01:53:24.089Z,-4.40
2022-12-18T01:55:55.387Z,-4.40
2022-12-18T02:00:50.421Z,-4.30
2022-12-18T02:03:16.939Z,-4.50
2022-12-18T02:06:10.119Z,-4.60
2022-12-18T02:09:08.336Z,-4.60
2022-12-18T02:12:20.264Z,-4.60
2022-12-18T02:15:29.222Z,-4.50
2022-12-18T02:18:18.668Z,-4.60
2022-12-18T02:20:54.419Z,-4.60
2022-12-18T02:24:41.559Z,-4.60
2022-12-18T02:27:11.383Z,-4.70
2022-12-18T02:29:57.587Z,-4.60
2022-12-18T02:32:35.171Z,-4.60
2022-12-18T02:35:06.311Z,-4.80
2022-12-18T02:37:35.383Z,-4.90
2022-12-18T02:40:05.095Z,-4.80
2022-12-18T02:42:32.770Z,-4.70
2022-12-18T02:44:59.254Z,-4.60
2022-12-18T02:47:32.631Z,-4.70
2022-12-18T02:51:00.267Z,-4.80
2022-12-18T02:53:45.497Z,-5.00
2022-12-18T02:56:23.366Z,-5.00
2022-12-18T02:59:25.821Z,-4.90
2022-12-18T03:03:39.054Z,-4.80
2022-12-18T03:06:21.578Z,-4.60
2022-12-18T03:08:54.801Z,-4.70
2022-12-18T03:11:47.005Z,-4.70
2022-12-18T03:14:16.779Z,-4.60
2022-12-18T03:16:47.046Z,-4.80
2022-12-18T03:19:21.912Z,-4.90
2022-12-18T03:21:54.598Z,-4.80
2022-12-18T03:24:24.298Z,-5.00
2022-12-18T03:26:58.124Z,-4.90
2022-12-18T03:29:41.064Z,-5.00
2022-12-18T03:32:29.225Z,-4.90
2022-12-18T03:35:03.269Z,-4.90
2022-12-18T03:37:30.879Z,-4.70
2022-12-18T03:39:57.457Z,-4.70
2022-12-18T03:43:20.873Z,-4.90
2022-12-18T03:46:47.281Z,-4.90
2022-12-18T03:51:04.326Z,-4.80
2022-12-18T03:54:00.507Z,-4.70
2022-12-18T03:56:33.770Z,-4.70
2022-12-18T03:59:03.711Z,-4.60
2022-12-18T04:01:37.525Z,-4.70
2022-12-18T04:04:06.013Z,-4.80
2022-12-18T04:06:36.465Z,-4.70
2022-12-18T04:09:04.467Z,-4.70
2022-12-18T04:11:31.230Z,-4.70
2022-12-18T04:13:58.636Z,-4.70
2022-12-18T04:16:28.803Z,-4.70
2022-12-18T04:18:55.695Z,-4.80
2022-12-18T04:21:22.997Z,-4.80
2022-12-18T04:23:49.735Z,-4.80
2022-12-18T04:26:16.245Z,-4.70
2022-12-18T04:28:42.862Z,-4.60
2022-12-18T04:31:09.503Z,-4.50
2022-12-18T04:33:36.239Z,-4.50
2022-12-18T04:36:02.866Z,-4.60
2022-12-18T04:38:29.515Z,-4.70
2022-12-18T04:40:55.985Z,-4.80
2022-12-18T04:43:22.563Z,-4.80
2022-12-18T04:45:49.107Z,-4.90
2022-12-18T04:48:15.558Z,-4.90
2022-12-18T04:50:42.029Z,-4.80
2022-12-18T04:53:08.515Z,-4.90
2022-12-18T04:55:35.080Z,-4.90
2022-12-18T04:58:01.577Z,-5.00
2022-12-18T05:00:28.071Z,-5.20
2022-12-18T05:02:54.793Z,-5.20
2022-12-18T05:05:21.318Z,-5.10
2022-12-18T05:07:47.806Z,-5.30
2022-12-18T05:10:14.300Z,-5.40
2022-12-18T05:12:58.203Z,-5.40
2022-12-18T05:15:32.142Z,-5.20
2022-12-18T05:17:59.462Z,-5.10
2022-12-18T05:20:27.297Z,-5.10
2022-12-18T05:22:54.944Z,-5.20
2022-12-18T05:25:22.488Z,-5.50
2022-12-18T05:27:49.070Z,-5.70
2022-12-18T05:30:16.215Z,-5.50
2022-12-18T05:32:43.620Z,-5.40
2022-12-18T05:35:11.572Z,-5.40
2022-12-18T05:37:42.771Z,-5.50
2022-12-18T05:40:11.025Z,-5.40
2022-12-18T05:42:37.559Z,-5.50
2022-12-18T05:45:05.400Z,-5.30
2022-12-18T05:47:31.920Z,-5.20
2022-12-18T05:49:58.422Z,-5.30
2022-12-18T05:52:24.948Z,-5.40
2022-12-18T05:54:54.049Z,-5.20
2022-12-18T05:57:20.506Z,-5.00
2022-12-18T05:59:46.978Z,-5.00
2022-12-18T06:02:13.604Z,-5.00
2022-12-18T06:04:40.221Z,-5.00
2022-12-18T06:07:06.725Z,-5.10
2022-12-18T06:09:33.203Z,-5.20
2022-12-18T06:11:59.762Z,-5.40
2022-12-18T06:14:26.283Z,-5.30
2022-12-18T06:16:52.773Z,-5.40
2022-12-18T06:19:19.260Z,-5.30
2022-12-18T06:21:45.776Z,-5.40
2022-12-18T06:24:12.267Z,-5.50
2022-12-18T06:26:39.729Z,-5.40
2022-12-18T06:29:06.603Z,-5.50
2022-12-18T06:31:33.186Z,-5.50
2022-12-18T06:34:01.977Z,-5.30
2022-12-18T06:36:29.388Z,-5.30
2022-12-18T06:38:57.150Z,-5.40
2022-12-18T06:41:23.764Z,-5.40
2022-12-18T06:43:50.650Z,-5.60
2022-12-18T06:46:17.291Z,-5.70
2022-12-18T06:48:47.676Z,-5.70
2022-12-18T06:51:23.944Z,-5.70
2022-12-18T06:53:50.687Z,-5.60
2022-12-18T06:56:17.542Z,-5.50
2022-12-18T06:58:44.087Z,-5.50
2022-12-18T07:01:13.764Z,-5.40
2022-12-18T07:03:43.798Z,-5.30
2022-12-18T07:06:20.177Z,-5.40
2022-12-18T07:08:48.100Z,-5.30
2022-12-18T07:11:15.969Z,-5.40
2022-12-18T07:13:43.059Z,-5.50
2022-12-18T07:16:24.637Z,-5.50
2022-12-18T07:18:54.439Z,-5.50
2022-12-18T07:21:22.278Z,-5.40
2022-12-18T07:23:49.250Z,-5.40
2022-12-18T07:26:19.902Z,-5.30
2022-12-18T07:28:46.782Z,-5.20
2022-12-18T07:31:21.643Z,-5.30
2022-12-18T07:33:49.418Z,-5.20
2022-12-18T07:36:16.126Z,-5.10
2022-12-18T07:38:42.760Z,-4.90
2022-12-18T07:41:13.784Z,-4.70
2022-12-18T07:43:42.330Z,-4.60
2022-12-18T07:46:13.234Z,-4.70
2022-12-18T07:48:41.431Z,-4.50
2022-12-18T07:51:09.141Z,-4.30
2022-12-18T07:53:37.247Z,-4.10
2022-12-18T07:59:05.439Z,-3.80
2022-12-18T08:01:32.033Z,-3.80
2022-12-18T08:03:58.872Z,-3.60
2022-12-18T08:06:25.504Z,-3.50
2022-12-18T08:08:56.182Z,-3.40
2022-12-18T08:11:25.236Z,-3.30
2022-12-18T08:13:52.337Z,-3.10
2022-12-18T08:16:20.721Z,-2.90
2022-12-18T08:18:47.923Z,-2.90
2022-12-18T08:21:27.439Z,-2.80
2022-12-18T08:23:56.117Z,-2.60
2022-12-18T08:26:24.564Z,-2.50
2022-12-18T08:28:53.672Z,-2.40
2022-12-18T08:31:21.276Z,-2.40
2022-12-18T08:33:53.277Z,-2.20
2022-12-18T08:36:21.386Z,-2.10
2022-12-18T08:38:48.255Z,-2.00
2022-12-18T08:41:17.072Z,-2.00
2022-12-18T08:44:02.435Z,-1.80
2022-12-18T08:46:37.299Z,-1.70
2022-12-18T08:49:05.219Z,-1.60
2022-12-18T08:51:32.365Z,-1.40
2022-12-18T08:53:58.868Z,-1.30
2022-12-18T08:56:25.495Z,-1.20
2022-12-18T08:58:53.842Z,-1.10
2022-12-18T09:01:21.455Z,-1.10
2022-12-18T09:03:51.873Z,-1.00
2022-12-18T09:06:22.750Z,-0.80
2022-12-18T09:08:49.526Z,-0.80
2022-12-18T09:11:24.353Z,-0.60
2022-12-18T09:13:51.602Z,-0.50
2022-12-18T09:16:19.792Z,-0.40
2022-12-18T09:18:47.424Z,-0.30
2022-12-18T09:21:22.948Z,-0.20
2022-12-18T09:23:54.477Z,-0.10
2022-12-18T09:26:22.584Z,-0.10
2022-12-18T09:28:49.434Z,0.10
2022-12-18T09:31:17.977Z,0.10
2022-12-18T09:33:45.443Z,0.30
2022-12-18T09:36:16.313Z,0.30
2022-12-18T09:38:43.316Z,0.50
2022-12-18T09:43:05.150Z,0.60
2022-12-18T09:45:44.895Z,0.60
2022-12-18T09:48:26.333Z,0.60
2022-12-18T09:51:02.692Z,0.70
2022-12-18T09:53:35.439Z,0.70
2022-12-18T09:56:04.904Z,0.80
2022-12-18T09:58:48.653Z,0.90
2022-12-18T10:01:26.330Z,0.90
2022-12-18T10:03:55.434Z,1.00
2022-12-18T10:08:11.831Z,1.10
2022-12-18T10:11:10.205Z,1.10
2022-12-18T10:14:01.279Z,1.20
2022-12-18T10:18:21.734Z,1.10
2022-12-18T10:21:00.260Z,1.00
2022-12-18T10:27:34.122Z,1.00
2022-12-18T10:30:13.219Z,1.10
2022-12-18T10:32:40.418Z,1.20
2022-12-18T10:35:22.463Z,1.30
2022-12-18T10:38:24.739Z,1.40
2022-12-18T10:41:11.684Z,1.40
2022-12-18T10:43:42.056Z,1.50
2022-12-18T10:46:21.095Z,1.60
2022-12-18T10:48:58.239Z,1.70
2022-12-18T10:51:38.821Z,1.80
2022-12-18T10:54:32.943Z,1.80
2022-12-18T10:59:53.547Z,1.80
2022-12-18T11:02:37.040Z,1.80
2022-12-18T11:05:32.556Z,1.70
2022-12-18T11:08:00.844Z,1.70
2022-12-18T11:10:35.776Z,1.70
2022-12-18T11:15:52.356Z,1.70
2022-12-18T11:18:30.212Z,1.60
2022-12-18T11:21:11.931Z,1.50
2022-12-18T11:23:52.020Z,1.50
2022-12-18T11:26:19.275Z,1.60
2022-12-18T11:29:10.353Z,1.50
2022-12-18T11:31:36.954Z,1.40
2022-12-18T11:34:32.251Z,1.30
2022-12-18T11:37:03.834Z,1.20
2022-12-18T11:39:45.219Z,1.20
2022-12-18T11:42:41.419Z,1.10
2022-12-18T11:45:52.870Z,1.10
2022-12-18T11:48:27.838Z,1.10
2022-12-18T11:50:57.806Z,1.20
2022-12-18T11:53:26.819Z,1.20
2022-12-18T11:59:46.696Z,1.20
2022-12-18T12:04:27.883Z,1.10
2022-12-18T12:07:31.620Z,1.10
2022-12-18T12:11:19.718Z,0.80
2022-12-18T12:14:38.216Z,0.80
2022-12-18T12:17:39.299Z,0.80
2022-12-18T12:20:36.040Z,0.70
2022-12-18T12:27:03.446Z,0.90
2022-12-18T12:30:11.759Z,0.80
2022-12-18T12:35:00.228Z,0.80
2022-12-18T12:40:49.275Z,0.60
2022-12-18T12:43:51.032Z,0.80
2022-12-18T12:46:22.509Z,0.60
2022-12-18T12:48:55.768Z,0.50
2022-12-18T12:51:43.955Z,0.50
2022-12-18T12:54:24.046Z,0.50
2022-12-18T12:57:16.469Z,0.50
2022-12-18T13:00:24.359Z,0.40
2022-12-18T13:05:58.751Z,0.40
2022-12-18T13:08:34.124Z,0.60
2022-12-18T13:13:55.143Z,0.60
2022-12-18T13:16:29.970Z,0.60
2022-12-18T13:18:58.991Z,0.60
2022-12-18T13:21:34.100Z,0.70
2022-12-18T13:24:30.931Z,0.70
2022-12-18T13:26:57.406Z,0.80
2022-12-18T13:29:45.978Z,0.90
2022-12-18T13:32:26.385Z,1.00
2022-12-18T13:35:39.300Z,1.10
2022-12-18T13:38:35.919Z,1.10
2022-12-18T13:42:56.095Z,1.10
2022-12-18T13:46:46.417Z,1.10
2022-12-18T13:49:58.561Z,1.00
2022-12-18T13:52:39.588Z,0.90
2022-12-18T13:55:18.227Z,0.90
2022-12-18T13:57:44.737Z,0.70
2022-12-18T14:00:30.645Z,0.70
2022-12-18T14:02:59.640Z,0.70
2022-12-18T14:05:38.680Z,0.70
2022-12-18T14:08:13.172Z,0.60
2022-12-18T14:10:49.195Z,0.50
2022-12-18T14:13:32.512Z,0.40
2022-12-18T14:16:04.208Z,0.40
2022-12-18T14:19:04.074Z,0.40
2022-12-18T14:21:35.373Z,0.50
2022-12-18T14:24:19.851Z,0.50
2022-12-18T14:26:49.686Z,0.50
2022-12-18T14:29:31.584Z,0.50
2022-12-18T14:32:19.769Z,0.40
2022-12-18T14:34:52.411Z,0.40
2022-12-18T14:37:25.154Z,0.40
2022-12-18T14:40:10.156Z,0.30
2022-12-18T14:42:37.756Z,0.30
2022-12-18T14:45:42.901Z,0.30
2022-12-18T14:48:38.651Z,0.30
2022-12-18T14:51:26.890Z,0.30
2022-12-18T14:54:03.218Z,0.20
2022-12-18T14:56:43.456Z,0.20
2022-12-18T14:59:30.538Z,0.10
2022-12-18T15:02:20.684Z,0.20
2022-12-18T15:04:47.664Z,0.20
2022-12-18T15:07:24.745Z,0.30
2022-12-18T15:10:22.348Z,0.30
2022-12-18T15:13:10.225Z,0.30
2022-12-18T15:15:48.130Z,0.30
2022-12-18T15:18:20.368Z,0.30
2022-12-18T15:20:59.308Z,0.30
2022-12-18T15:24:04.680Z,0.30
2022-12-18T15:26:38.934Z,0.20
2022-12-18T15:29:05.433Z,0.20
2022-12-18T15:31:35.505Z,0.20
2022-12-18T15:34:25.515Z,0.10
2022-12-18T15:36:52.194Z,0.10
2022-12-18T15:39:19.121Z,0.10
2022-12-18T15:42:04.265Z,0.10
2022-12-18T15:44:31.155Z,0.10
2022-12-18T15:46:58.173Z,0.00
2022-12-18T15:49:24.853Z,0.00
2022-12-18T15:51:56.848Z,-0.20
2022-12-18T15:56:26.680Z,-0.20
2022-12-18T15:58:53.152Z,-0.20
2022-12-18T16:01:21.005Z,0.00
2022-12-18T16:03:47.565Z,0.00
2022-12-18T16:06:14.045Z,0.00
2022-12-18T16:08:40.557Z,0.00
2022-12-18T16:11:39.284Z,0.00
2022-12-18T16:14:31.618Z,0.00
2022-12-18T16:17:02.662Z,0.10
2022-12-18T16:19:30.246Z,0.10
2022-12-18T16:21:58.761Z,0.10
2022-12-18T16:24:29.963Z,0.10
2022-12-18T16:27:00.482Z,0.20
2022-12-18T16:29:29.170Z,0.10
2022-12-18T16:32:00.724Z,0.10
2022-12-18T16:34:35.935Z,0.10
2022-12-18T16:37:06.587Z,0.10
2022-12-18T16:39:38.354Z,0.10
2022-12-18T16:45:08.817Z,0.00
2022-12-18T16:47:35.438Z,0.00
2022-12-18T16:50:02.382Z,0.00
2022-12-18T16:52:29.592Z,0.10
2022-12-18T16:54:56.404Z,0.00
2022-12-18T16:57:25.551Z,0.00
2022-12-18T16:59:53.879Z,0.00
2022-12-18T17:02:26.552Z,0.00
2022-12-18T17:04:58.323Z,0.00
2022-12-18T17:07:26.410Z,0.10
2022-12-18T17:09:56.342Z,0.00
2022-12-18T17:12:24.081Z,0.10
2022-12-18T17:14:52.500Z,0.00
2022-12-18T17:17:21.745Z,0.00
2022-12-18T17:19:50.117Z,0.00
2022-12-18T17:22:16.959Z,0.00
2022-12-18T17:24:52.715Z,0.00
2022-12-18T17:27:19.678Z,0.00
2022-12-18T17:29:48.420Z,-0.10
2022-12-18T17:32:17.740Z,-0.10
2022-12-18T17:34:47.579Z,-0.10
2022-12-18T17:37:18.072Z,-0.10
2022-12-18T17:39:44.921Z,0.00
2022-12-18T17:42:15.276Z,0.00
2022-12-18T17:44:47.891Z,-0.10
2022-12-18T17:47:14.987Z,-0.10
2022-12-18T17:49:44.644Z,-0.10
2022-12-18T17:52:15.401Z,0.00
2022-12-18T17:54:43.132Z,0.00
2022-12-18T17:57:10.627Z,0.00
2022-12-18T17:59:37.135Z,0.00
2022-12-18T18:02:04.185Z,0.00
2022-12-18T18:04:31.312Z,0.10
2022-12-18T18:06:57.758Z,0.00
2022-12-18T18:09:24.316Z,0.10
2022-12-18T18:12:09.090Z,0.10
2022-12-18T18:14:35.898Z,0.10
2022-12-18T18:17:04.713Z,0.10
2022-12-18T18:19:33.006Z,0.10
2022-12-18T18:21:59.568Z,0.10
2022-12-18T18:24:26.246Z,0.10
2022-12-18T18:26:52.944Z,0.10
2022-12-18T18:29:22.796Z,0.10
2022-12-18T18:31:49.562Z,0.10
2022-12-18T18:34:23.430Z,0.10
2022-12-18T18:36:50.838Z,0.10
2022-12-18T18:39:18.131Z,0.10
2022-12-18T18:41:48.191Z,0.10
2022-12-18T18:44:17.248Z,0.10
2022-12-18T18:46:44.471Z,0.10
2022-12-18T18:49:12.862Z,0.10
2022-12-18T18:51:40.511Z,0.10
2022-12-18T18:54:07.038Z,0.10
2022-12-18T18:57:11.950Z,0.10
2022-12-18T18:59:46.614Z,0.10
2022-12-18T19:02:16.706Z,0.10
2022-12-18T19:04:46.737Z,0.10
2022-12-18T19:07:15.079Z,0.10
2022-12-18T19:09:56.592Z,0.10
2022-12-18T19:12:41.202Z,0.10
2022-12-18T19:15:08.207Z,0.10
2022-12-18T19:17:36.634Z,0.10
2022-12-18T19:20:04.756Z,0.10
2022-12-18T19:22:31.272Z,0.10
2022-12-18T19:24:57.817Z,0.10
2022-12-18T19:27:24.283Z,0.10
2022-12-18T19:29:50.750Z,0.10
2022-12-18T19:32:17.284Z,0.10
2022-12-18T19:34:44.864Z,0.10
2022-12-18T19:37:13.534Z,0.00
2022-12-18T19:39:40.031Z,0.00
2022-12-18T19:42:06.472Z,0.10
2022-12-18T19:44:32.947Z,0.10
2022-12-18T19:46:59.422Z,0.10
2022-12-18T19:49:25.893Z,0.10
2022-12-18T19:51:52.380Z,0.10
2022-12-18T19:54:18.876Z,0.10
2022-12-18T19:56:46.063Z,0.10
2022-12-18T19:59:13.400Z,0.10
2022-12-18T20:01:40.260Z,0.10
2022-12-18T20:04:06.937Z,0.00
2022-12-18T20:06:51.988Z,0.00
2022-12-18T20:09:19.866Z,0.00
2022-12-18T20:11:47.533Z,0.00
2022-12-18T20:14:19.625Z,0.10
2022-12-18T20:16:51.479Z,0.10
2022-12-18T20:19:18.545Z,0.10
2022-12-18T20:21:45.366Z,0.00
2022-12-18T20:24:12.201Z,0.00
2022-12-18T20:26:39.759Z,0.00
2022-12-18T20:29:06.238Z,0.10
2022-12-18T20:31:32.754Z,0.10
2022-12-18T20:34:00.488Z,0.00
2022-12-18T20:36:29.570Z,0.00
2022-12-18T20:38:59.261Z,0.10
2022-12-18T20:41:37.430Z,0.00
2022-12-18T20:44:21.397Z,0.00
2022-12-18T20:46:53.740Z,0.00
2022-12-18T20:49:20.953Z,0.00
2022-12-18T20:51:51.633Z,0.00
2022-12-18T20:54:18.133Z,-0.10
2022-12-18T20:56:44.612Z,0.00
2022-12-18T20:59:11.079Z,-0.10
2022-12-18T21:01:38.323Z,-0.10
2022-12-18T21:04:07.396Z,-0.10
2022-12-18T21:06:33.914Z,-0.10
2022-12-18T21:09:00.356Z,-0.10
2022-12-18T21:11:49.219Z,-0.10
2022-12-18T21:14:21.321Z,-0.30
2022-12-18T21:16:49.258Z,-0.50
2022-12-18T21:19:19.570Z,-0.50
2022-12-18T21:21:46.598Z,-0.30
2022-12-18T21:24:13.574Z,-0.30
2022-12-18T21:26:45.454Z,-0.20
2022-12-18T21:29:17.125Z,0.00
2022-12-18T21:31:44.922Z,0.00
2022-12-18T21:34:21.616Z,0.00
2022-12-18T21:36:48.767Z,0.10
2022-12-18T21:39:16.876Z,0.10
2022-12-18T21:42:02.325Z,0.10
2022-12-18T21:44:29.848Z,0.10
2022-12-18T21:47:05.776Z,0.10
2022-12-18T21:49:38.645Z,0.20
2022-12-18T21:52:05.530Z,0.10
2022-12-18T21:54:33.062Z,0.00
2022-12-18T21:57:02.881Z,0.00
2022-12-18T21:59:36.349Z,0.10
2022-12-18T22:02:24.368Z,0.10
2022-12-18T22:04:51.014Z,0.20
2022-12-18T22:07:17.481Z,0.20
2022-12-18T22:09:44.034Z,0.20
2022-12-18T22:12:13.054Z,0.20
2022-12-18T22:14:39.526Z,0.20
2022-12-18T22:17:05.980Z,0.20
2022-12-18T22:19:38.112Z,0.30
2022-12-18T22:22:09.218Z,0.20
2022-12-18T22:24:35.690Z,0.20
2022-12-18T22:27:02.590Z,0.20
2022-12-18T22:29:47.538Z,0.10
2022-12-18T22:32:30.626Z,0.20
2022-12-18T22:35:05.780Z,0.20
2022-12-18T22:37:34.669Z,0.10
2022-12-18T22:40:03.103Z,0.10
2022-12-18T22:42:31.071Z,0.10
2022-12-18T22:44:57.544Z,0.20
2022-12-18T22:47:29.187Z,0.20
2022-12-18T22:49:56.193Z,0.10
2022-12-18T22:52:23.445Z,0.10
2022-12-18T22:54:53.150Z,0.10
2022-12-18T22:57:22.053Z,0.10
2022-12-18T22:59:50.154Z,0.00
2022-12-18T23:02:18.270Z,0.00
2022-12-18T23:04:45.110Z,0.00
2022-12-18T23:07:11.639Z,0.00
2022-12-18T23:09:39.520Z,-0.10
2022-12-18T23:12:06.792Z,-0.10
2022-12-18T23:14:33.268Z,0.00
2022-12-18T23:16:59.740Z,0.00
2022-12-18T23:19:26.312Z,0.00
2022-12-18T23:21:52.790Z,-0.10
2022-12-18T23:24:21.268Z,0.00
2022-12-18T23:26:47.725Z,0.00
2022-12-18T23:29:14.205Z,0.00
2022-12-18T23:31:40.752Z,0.00
2022-12-18T23:34:08.160Z,-0.10
2022-12-18T23:36:45.205Z,-0.20
2022-12-18T23:39:24.361Z,-0.20
2022-12-18T23:42:00.030Z,-0.30
2022-12-18T23:44:27.258Z,-0.20
2022-12-18T23:46:53.911Z,-0.30
2022-12-18T23:49:20.463Z,-0.20
2022-12-18T23:51:46.994Z,-0.20
2022-12-18T23:54:13.679Z,-0.10
2022-12-18T23:56:40.206Z,-0.10
2022-12-18T23:59:06.722Z,-0.10
